sensor_id;sensor_type;location;lat;lon;timestamp;temperature;humidity
30678;DHT22;17437;47.188;8.896;2023-04-15T00:02:13;5.10;99.90
30678;DHT22;17437;47.188;8.896;2023-04-15T00:04:45;5.20;99.90
30678;DHT22;17437;47.188;8.896;2023-04-15T00:07:17;5.20;99.90
30678;DHT22;17437;47.188;8.896;2023-04-15T00:09:49;5.40;99.90
30678;DHT22;17437;47.188;8.896;2023-04-15T00:12:22;5.40;99.90
30678;DHT22;17437;47.188;8.896;2023-04-15T00:14:54;5.40;99.90
30678;DHT22;17437;47.188;8.896;2023-04-15T00:17:26;5.40;99.90
30678;DHT22;17437;47.188;8.896;2023-04-15T00:19:58;5.40;99.90
30678;DHT22;17437;47.188;8.896;2023-04-15T00:22:29;5.50;99.90
30678;DHT22;17437;47.188;8.896;2023-04-15T00:25:01;5.50;99.90
30678;DHT22;17437;47.188;8.896;2023-04-15T00:27:33;5.50;99.90
30678;DHT22;17437;47.188;8.896;2023-04-15T00:30:07;5.50;99.90
30678;DHT22;17437;47.188;8.896;2023-04-15T00:32:38;5.50;99.90
30678;DHT22;17437;47.188;8.896;2023-04-15T00:35:11;5.50;99.90
30678;DHT22;17437;47.188;8.896;2023-04-15T00:37:43;5.50;99.90
30678;DHT22;17437;47.188;8.896;2023-04-15T00:40:18;5.50;99.90
30678;DHT22;17437;47.188;8.896;2023-04-15T00:42:50;5.50;99.90
30678;DHT22;17437;47.188;8.896;2023-04-15T00:45:22;5.50;99.90
30678;DHT22;17437;47.188;8.896;2023-04-15T00:47:54;5.40;99.90
30678;DHT22;17437;47.188;8.896;2023-04-15T00:50:26;5.40;99.90
30678;DHT22;17437;47.188;8.896;2023-04-15T00:52:57;5.40;99.90
30678;DHT22;17437;47.188;8.896;2023-04-15T00:55:29;5.30;99.90
30678;DHT22;17437;47.188;8.896;2023-04-15T00:58:00;5.40;99.90
30678;DHT22;17437;47.188;8.896;2023-04-15T01:00:32;5.30;99.90
30678;DHT22;17437;47.188;8.896;2023-04-15T01:03:05;5.30;99.90
30678;DHT22;17437;47.188;8.896;2023-04-15T01:05:38;5.30;99.90
30678;DHT22;17437;47.188;8.896;2023-04-15T01:08:10;5.40;99.90
30678;DHT22;17437;47.188;8.896;2023-04-15T01:10:42;5.40;99.90
30678;DHT22;17437;47.188;8.896;2023-04-15T01:13:14;5.30;99.90
30678;DHT22;17437;47.188;8.896;2023-04-15T01:15:45;5.30;99.90
30678;DHT22;17437;47.188;8.896;2023-04-15T01:18:17;5.20;99.90
30678;DHT22;17437;47.188;8.896;2023-04-15T01:20:49;5.30;99.90
30678;DHT22;17437;47.188;8.896;2023-04-15T01:23:21;5.30;99.90
30678;DHT22;17437;47.188;8.896;2023-04-15T01:25:53;5.20;99.90
30678;DHT22;17437;47.188;8.896;2023-04-15T01:28:26;5.20;99.90
30678;DHT22;17437;47.188;8.896;2023-04-15T01:31:08;5.20;99.90
30678;DHT22;17437;47.188;8.896;2023-04-15T01:33:42;5.10;99.90
30678;DHT22;17437;47.188;8.896;2023-04-15T01:36:13;5.10;99.90
30678;DHT22;17437;47.188;8.896;2023-04-15T01:38:45;5.00;99.90
30678;DHT22;17437;47.188;8.896;2023-04-15T01:41:21;4.80;99.90
30678;DHT22;17437;47.188;8.896;2023-04-15T01:43:54;4.70;99.90
30678;DHT22;17437;47.188;8.896;2023-04-15T01:46:25;4.60;99.90
30678;DHT22;17437;47.188;8.896;2023-04-15T01:48:57;4.50;99.90
30678;DHT22;17437;47.188;8.896;2023-04-15T01:51:29;4.40;99.90
30678;DHT22;17437;47.188;8.896;2023-04-15T01:54:01;4.40;99.90
30678;DHT22;17437;47.188;8.896;2023-04-15T01:56:33;4.50;99.90
30678;DHT22;17437;47.188;8.896;2023-04-15T01:59:04;4.60;99.90
30678;DHT22;17437;47.188;8.896;2023-04-15T02:01:36;4.70;99.90
30678;DHT22;17437;47.188;8.896;2023-04-15T02:04:09;4.80;99.90
30678;DHT22;17437;47.188;8.896;2023-04-15T02:06:42;4.90;99.90
30678;DHT22;17437;47.188;8.896;2023-04-15T02:09:13;5.10;99.90
30678;DHT22;17437;47.188;8.896;2023-04-15T02:11:45;5.20;99.90
30678;DHT22;17437;47.188;8.896;2023-04-15T02:14:17;5.30;99.90
30678;DHT22;17437;47.188;8.896;2023-04-15T02:16:48;5.30;99.90
30678;DHT22;17437;47.188;8.896;2023-04-15T02:19:20;5.40;99.90
30678;DHT22;17437;47.188;8.896;2023-04-15T02:21:52;5.40;99.90
30678;DHT22;17437;47.188;8.896;2023-04-15T02:24:23;5.50;99.90
30678;DHT22;17437;47.188;8.896;2023-04-15T02:26:55;5.50;99.90
30678;DHT22;17437;47.188;8.896;2023-04-15T02:29:27;5.50;99.90
30678;DHT22;17437;47.188;8.896;2023-04-15T02:31:58;5.50;99.90
30678;DHT22;17437;47.188;8.896;2023-04-15T02:34:31;5.60;99.90
30678;DHT22;17437;47.188;8.896;2023-04-15T02:37:03;5.60;99.90
30678;DHT22;17437;47.188;8.896;2023-04-15T02:39:36;5.60;99.90
30678;DHT22;17437;47.188;8.896;2023-04-15T02:42:07;5.60;99.90
30678;DHT22;17437;47.188;8.896;2023-04-15T02:44:39;5.70;99.90
30678;DHT22;17437;47.188;8.896;2023-04-15T02:47:11;5.70;99.90
30678;DHT22;17437;47.188;8.896;2023-04-15T02:49:43;5.70;99.90
30678;DHT22;17437;47.188;8.896;2023-04-15T02:52:15;5.70;99.90
30678;DHT22;17437;47.188;8.896;2023-04-15T02:54:46;5.70;99.90
30678;DHT22;17437;47.188;8.896;2023-04-15T02:57:18;5.70;99.90
30678;DHT22;17437;47.188;8.896;2023-04-15T02:59:49;5.70;99.90
30678;DHT22;17437;47.188;8.896;2023-04-15T03:02:21;5.70;99.90
30678;DHT22;17437;47.188;8.896;2023-04-15T03:04:52;5.70;99.90
30678;DHT22;17437;47.188;8.896;2023-04-15T03:07:25;5.70;99.90
30678;DHT22;17437;47.188;8.896;2023-04-15T03:09:56;5.70;99.90
30678;DHT22;17437;47.188;8.896;2023-04-15T03:12:28;5.70;99.90
30678;DHT22;17437;47.188;8.896;2023-04-15T03:14:59;5.70;99.90
30678;DHT22;17437;47.188;8.896;2023-04-15T03:17:31;5.70;99.90
30678;DHT22;17437;47.188;8.896;2023-04-15T03:20:03;5.70;99.90
30678;DHT22;17437;47.188;8.896;2023-04-15T03:22:35;5.70;99.90
30678;DHT22;17437;47.188;8.896;2023-04-15T03:25:08;5.60;99.90
30678;DHT22;17437;47.188;8.896;2023-04-15T03:27:40;5.60;99.90
30678;DHT22;17437;47.188;8.896;2023-04-15T03:30:12;5.50;99.90
30678;DHT22;17437;47.188;8.896;2023-04-15T03:32:44;5.60;99.90
30678;DHT22;17437;47.188;8.896;2023-04-15T03:35:16;5.60;99.90
30678;DHT22;17437;47.188;8.896;2023-04-15T03:37:47;5.60;99.90
30678;DHT22;17437;47.188;8.896;2023-04-15T03:40:19;5.60;99.90
30678;DHT22;17437;47.188;8.896;2023-04-15T03:42:51;5.60;99.90
30678;DHT22;17437;47.188;8.896;2023-04-15T03:45:23;5.50;99.90
30678;DHT22;17437;47.188;8.896;2023-04-15T03:47:54;5.50;99.90
30678;DHT22;17437;47.188;8.896;2023-04-15T03:50:27;5.50;99.90
30678;DHT22;17437;47.188;8.896;2023-04-15T03:53:00;5.50;99.90
30678;DHT22;17437;47.188;8.896;2023-04-15T03:55:31;5.50;99.90
30678;DHT22;17437;47.188;8.896;2023-04-15T03:58:03;5.50;99.90
30678;DHT22;17437;47.188;8.896;2023-04-15T04:00:34;5.60;99.90
30678;DHT22;17437;47.188;8.896;2023-04-15T04:03:06;5.50;99.90
30678;DHT22;17437;47.188;8.896;2023-04-15T04:05:38;5.50;99.90
30678;DHT22;17437;47.188;8.896;2023-04-15T04:08:11;5.50;99.90
30678;DHT22;17437;47.188;8.896;2023-04-15T04:10:44;5.50;99.90
30678;DHT22;17437;47.188;8.896;2023-04-15T04:13:15;5.50;99.90
30678;DHT22;17437;47.188;8.896;2023-04-15T04:15:47;5.40;99.90
30678;DHT22;17437;47.188;8.896;2023-04-15T04:18:19;5.40;99.90
30678;DHT22;17437;47.188;8.896;2023-04-15T04:20:51;5.40;99.90
30678;DHT22;17437;47.188;8.896;2023-04-15T04:23:22;5.30;99.90
30678;DHT22;17437;47.188;8.896;2023-04-15T04:25:54;5.30;99.90
30678;DHT22;17437;47.188;8.896;2023-04-15T04:28:26;5.30;99.90
30678;DHT22;17437;47.188;8.896;2023-04-15T04:30:57;5.30;99.90
30678;DHT22;17437;47.188;8.896;2023-04-15T04:33:29;5.40;99.90
30678;DHT22;17437;47.188;8.896;2023-04-15T04:36:01;5.40;99.90
30678;DHT22;17437;47.188;8.896;2023-04-15T04:38:32;5.40;99.90
30678;DHT22;17437;47.188;8.896;2023-04-15T04:41:04;5.40;99.90
30678;DHT22;17437;47.188;8.896;2023-04-15T04:43:36;5.40;99.90
30678;DHT22;17437;47.188;8.896;2023-04-15T04:46:07;5.50;99.90
30678;DHT22;17437;47.188;8.896;2023-04-15T04:48:39;5.40;99.90
30678;DHT22;17437;47.188;8.896;2023-04-15T04:51:11;5.40;99.90
30678;DHT22;17437;47.188;8.896;2023-04-15T04:53:43;5.50;99.90
30678;DHT22;17437;47.188;8.896;2023-04-15T04:56:14;5.50;99.90
30678;DHT22;17437;47.188;8.896;2023-04-15T04:58:46;5.50;99.90
30678;DHT22;17437;47.188;8.896;2023-04-15T05:01:17;5.50;99.90
30678;DHT22;17437;47.188;8.896;2023-04-15T05:03:49;5.60;99.90
30678;DHT22;17437;47.188;8.896;2023-04-15T05:06:21;5.60;99.90
30678;DHT22;17437;47.188;8.896;2023-04-15T05:08:52;5.60;99.90
30678;DHT22;17437;47.188;8.896;2023-04-15T05:11:24;5.70;99.90
30678;DHT22;17437;47.188;8.896;2023-04-15T05:13:55;5.70;99.90
30678;DHT22;17437;47.188;8.896;2023-04-15T05:16:28;5.80;99.90
30678;DHT22;17437;47.188;8.896;2023-04-15T05:19:00;5.80;99.90
30678;DHT22;17437;47.188;8.896;2023-04-15T05:21:32;5.90;99.90
30678;DHT22;17437;47.188;8.896;2023-04-15T05:24:04;5.90;99.90
30678;DHT22;17437;47.188;8.896;2023-04-15T05:26:36;6.00;99.90
30678;DHT22;17437;47.188;8.896;2023-04-15T05:29:07;6.00;99.90
30678;DHT22;17437;47.188;8.896;2023-04-15T05:31:39;6.00;99.90
30678;DHT22;17437;47.188;8.896;2023-04-15T05:34:11;6.10;99.90
30678;DHT22;17437;47.188;8.896;2023-04-15T05:36:45;6.20;99.90
30678;DHT22;17437;47.188;8.896;2023-04-15T05:39:16;6.20;99.90
30678;DHT22;17437;47.188;8.896;2023-04-15T05:41:48;6.20;99.90
30678;DHT22;17437;47.188;8.896;2023-04-15T05:44:19;6.20;99.90
30678;DHT22;17437;47.188;8.896;2023-04-15T05:46:51;6.20;99.90
30678;DHT22;17437;47.188;8.896;2023-04-15T05:49:22;6.20;99.90
30678;DHT22;17437;47.188;8.896;2023-04-15T05:51:54;6.30;99.90
30678;DHT22;17437;47.188;8.896;2023-04-15T05:54:26;6.40;99.90
30678;DHT22;17437;47.188;8.896;2023-04-15T05:56:57;6.40;99.90
30678;DHT22;17437;47.188;8.896;2023-04-15T05:59:30;6.50;99.90
30678;DHT22;17437;47.188;8.896;2023-04-15T06:02:02;6.60;99.90
30678;DHT22;17437;47.188;8.896;2023-04-15T06:04:33;6.60;99.90
30678;DHT22;17437;47.188;8.896;2023-04-15T06:07:05;6.70;99.90
30678;DHT22;17437;47.188;8.896;2023-04-15T06:09:36;6.80;99.90
30678;DHT22;17437;47.188;8.896;2023-04-15T06:12:08;6.90;99.90
30678;DHT22;17437;47.188;8.896;2023-04-15T06:14:41;7.00;99.90
30678;DHT22;17437;47.188;8.896;2023-04-15T06:17:13;7.00;99.90
30678;DHT22;17437;47.188;8.896;2023-04-15T06:19:46;7.10;99.90
30678;DHT22;17437;47.188;8.896;2023-04-15T06:22:19;7.20;99.90
30678;DHT22;17437;47.188;8.896;2023-04-15T06:24:51;7.30;99.90
30678;DHT22;17437;47.188;8.896;2023-04-15T06:27:22;7.30;99.90
30678;DHT22;17437;47.188;8.896;2023-04-15T06:29:53;7.40;99.90
30678;DHT22;17437;47.188;8.896;2023-04-15T06:32:25;7.50;99.90
30678;DHT22;17437;47.188;8.896;2023-04-15T06:34:57;7.50;99.90
30678;DHT22;17437;47.188;8.896;2023-04-15T06:37:28;7.50;99.90
30678;DHT22;17437;47.188;8.896;2023-04-15T06:40:00;7.60;99.90
30678;DHT22;17437;47.188;8.896;2023-04-15T06:42:33;7.60;99.90
30678;DHT22;17437;47.188;8.896;2023-04-15T06:45:08;7.60;99.90
30678;DHT22;17437;47.188;8.896;2023-04-15T06:47:39;7.70;99.90
30678;DHT22;17437;47.188;8.896;2023-04-15T06:50:11;7.80;99.90
30678;DHT22;17437;47.188;8.896;2023-04-15T06:52:43;7.90;99.90
30678;DHT22;17437;47.188;8.896;2023-04-15T06:55:14;8.00;99.90
30678;DHT22;17437;47.188;8.896;2023-04-15T06:57:46;8.10;99.90
30678;DHT22;17437;47.188;8.896;2023-04-15T07:00:18;8.30;99.90
30678;DHT22;17437;47.188;8.896;2023-04-15T07:02:51;8.70;99.90
30678;DHT22;17437;47.188;8.896;2023-04-15T07:05:22;8.70;99.90
30678;DHT22;17437;47.188;8.896;2023-04-15T07:07:54;9.20;99.90
30678;DHT22;17437;47.188;8.896;2023-04-15T07:10:26;9.90;99.90
30678;DHT22;17437;47.188;8.896;2023-04-15T07:12:58;10.40;99.90
30678;DHT22;17437;47.188;8.896;2023-04-15T07:15:30;10.60;99.90
30678;DHT22;17437;47.188;8.896;2023-04-15T07:18:01;10.60;99.90
30678;DHT22;17437;47.188;8.896;2023-04-15T07:20:33;10.70;99.90
30678;DHT22;17437;47.188;8.896;2023-04-15T07:23:05;10.40;99.90
30678;DHT22;17437;47.188;8.896;2023-04-15T07:25:37;10.20;99.90
30678;DHT22;17437;47.188;8.896;2023-04-15T07:28:09;10.00;99.90
30678;DHT22;17437;47.188;8.896;2023-04-15T07:30:40;9.80;99.90
30678;DHT22;17437;47.188;8.896;2023-04-15T07:33:12;9.70;99.90
30678;DHT22;17437;47.188;8.896;2023-04-15T07:35:43;9.40;99.90
30678;DHT22;17437;47.188;8.896;2023-04-15T07:38:16;9.20;99.90
30678;DHT22;17437;47.188;8.896;2023-04-15T07:40:47;9.00;99.90
30678;DHT22;17437;47.188;8.896;2023-04-15T07:43:20;9.10;99.90
30678;DHT22;17437;47.188;8.896;2023-04-15T07:45:51;9.30;99.90
30678;DHT22;17437;47.188;8.896;2023-04-15T07:48:23;9.50;99.90
30678;DHT22;17437;47.188;8.896;2023-04-15T07:50:55;9.80;99.90
30678;DHT22;17437;47.188;8.896;2023-04-15T07:53:26;10.00;99.90
30678;DHT22;17437;47.188;8.896;2023-04-15T07:56:02;10.30;99.90
30678;DHT22;17437;47.188;8.896;2023-04-15T07:58:33;10.10;99.90
30678;DHT22;17437;47.188;8.896;2023-04-15T08:01:05;10.00;99.90
30678;DHT22;17437;47.188;8.896;2023-04-15T08:03:36;9.70;99.90
30678;DHT22;17437;47.188;8.896;2023-04-15T08:06:08;9.70;99.90
30678;DHT22;17437;47.188;8.896;2023-04-15T08:08:40;9.60;99.90
30678;DHT22;17437;47.188;8.896;2023-04-15T08:11:12;9.40;99.90
30678;DHT22;17437;47.188;8.896;2023-04-15T08:13:44;9.40;99.90
30678;DHT22;17437;47.188;8.896;2023-04-15T08:16:21;9.30;99.90
30678;DHT22;17437;47.188;8.896;2023-04-15T08:18:55;9.30;99.90
30678;DHT22;17437;47.188;8.896;2023-04-15T08:21:27;9.50;99.90
30678;DHT22;17437;47.188;8.896;2023-04-15T08:24:00;9.50;99.90
30678;DHT22;17437;47.188;8.896;2023-04-15T08:26:32;9.50;99.90
30678;DHT22;17437;47.188;8.896;2023-04-15T08:29:06;9.50;99.90
30678;DHT22;17437;47.188;8.896;2023-04-15T08:31:38;9.50;99.90
30678;DHT22;17437;47.188;8.896;2023-04-15T08:34:12;9.60;99.90
30678;DHT22;17437;47.188;8.896;2023-04-15T08:36:44;9.60;99.90
30678;DHT22;17437;47.188;8.896;2023-04-15T08:39:16;9.80;99.90
30678;DHT22;17437;47.188;8.896;2023-04-15T08:41:50;9.90;99.90
30678;DHT22;17437;47.188;8.896;2023-04-15T08:44:23;10.30;99.90
30678;DHT22;17437;47.188;8.896;2023-04-15T08:46:57;10.50;99.90
30678;DHT22;17437;47.188;8.896;2023-04-15T08:49:32;10.70;99.90
30678;DHT22;17437;47.188;8.896;2023-04-15T08:52:06;11.00;99.90
30678;DHT22;17437;47.188;8.896;2023-04-15T08:54:38;11.20;99.90
30678;DHT22;17437;47.188;8.896;2023-04-15T08:57:10;11.40;99.90
30678;DHT22;17437;47.188;8.896;2023-04-15T08:59:43;11.50;99.90
30678;DHT22;17437;47.188;8.896;2023-04-15T09:02:15;11.70;99.90
30678;DHT22;17437;47.188;8.896;2023-04-15T09:04:47;11.80;99.90
30678;DHT22;17437;47.188;8.896;2023-04-15T09:07:18;11.90;99.90
30678;DHT22;17437;47.188;8.896;2023-04-15T09:09:50;11.70;99.90
30678;DHT22;17437;47.188;8.896;2023-04-15T09:12:22;11.90;99.90
30678;DHT22;17437;47.188;8.896;2023-04-15T09:14:54;12.10;99.90
30678;DHT22;17437;47.188;8.896;2023-04-15T09:17:25;12.50;99.90
30678;DHT22;17437;47.188;8.896;2023-04-15T09:20:09;12.80;99.90
30678;DHT22;17437;47.188;8.896;2023-04-15T09:22:44;12.80;99.90
30678;DHT22;17437;47.188;8.896;2023-04-15T09:25:27;12.80;99.90
30678;DHT22;17437;47.188;8.896;2023-04-15T09:28:00;13.00;99.90
30678;DHT22;17437;47.188;8.896;2023-04-15T09:30:32;13.10;99.90
30678;DHT22;17437;47.188;8.896;2023-04-15T09:33:04;13.40;99.90
30678;DHT22;17437;47.188;8.896;2023-04-15T09:35:37;13.70;99.90
30678;DHT22;17437;47.188;8.896;2023-04-15T09:38:10;13.70;99.90
30678;DHT22;17437;47.188;8.896;2023-04-15T09:40:42;13.80;99.90
30678;DHT22;17437;47.188;8.896;2023-04-15T09:43:13;14.00;99.90
30678;DHT22;17437;47.188;8.896;2023-04-15T09:45:50;14.10;99.90
30678;DHT22;17437;47.188;8.896;2023-04-15T09:48:23;14.10;99.90
30678;DHT22;17437;47.188;8.896;2023-04-15T09:50:58;13.90;99.90
30678;DHT22;17437;47.188;8.896;2023-04-15T09:53:32;13.90;99.90
30678;DHT22;17437;47.188;8.896;2023-04-15T09:56:05;13.90;99.90
30678;DHT22;17437;47.188;8.896;2023-04-15T09:58:38;14.10;99.90
30678;DHT22;17437;47.188;8.896;2023-04-15T10:01:11;14.10;99.90
30678;DHT22;17437;47.188;8.896;2023-04-15T10:03:42;14.10;99.90
30678;DHT22;17437;47.188;8.896;2023-04-15T10:06:14;14.10;99.90
30678;DHT22;17437;47.188;8.896;2023-04-15T10:08:47;14.10;99.90
30678;DHT22;17437;47.188;8.896;2023-04-15T10:11:20;14.10;99.90
30678;DHT22;17437;47.188;8.896;2023-04-15T10:13:53;14.00;99.90
30678;DHT22;17437;47.188;8.896;2023-04-15T10:16:26;13.80;99.90
30678;DHT22;17437;47.188;8.896;2023-04-15T10:19:00;13.80;99.90
30678;DHT22;17437;47.188;8.896;2023-04-15T10:21:34;13.90;99.90
30678;DHT22;17437;47.188;8.896;2023-04-15T10:24:06;14.10;99.90
30678;DHT22;17437;47.188;8.896;2023-04-15T10:26:39;14.00;99.90
30678;DHT22;17437;47.188;8.896;2023-04-15T10:29:12;13.90;99.90
30678;DHT22;17437;47.188;8.896;2023-04-15T10:31:44;13.80;99.90
30678;DHT22;17437;47.188;8.896;2023-04-15T10:34:25;13.50;99.90
30678;DHT22;17437;47.188;8.896;2023-04-15T10:37:00;13.30;99.90
30678;DHT22;17437;47.188;8.896;2023-04-15T10:39:40;13.30;99.90
30678;DHT22;17437;47.188;8.896;2023-04-15T10:42:33;13.00;99.90
30678;DHT22;17437;47.188;8.896;2023-04-15T10:45:08;12.90;99.90
30678;DHT22;17437;47.188;8.896;2023-04-15T10:47:42;13.00;99.90
30678;DHT22;17437;47.188;8.896;2023-04-15T10:50:14;13.00;99.90
30678;DHT22;17437;47.188;8.896;2023-04-15T10:52:49;12.90;99.90
30678;DHT22;17437;47.188;8.896;2023-04-15T10:55:24;12.70;99.90
30678;DHT22;17437;47.188;8.896;2023-04-15T10:57:58;12.60;99.90
30678;DHT22;17437;47.188;8.896;2023-04-15T11:00:31;12.30;99.90
30678;DHT22;17437;47.188;8.896;2023-04-15T11:03:06;12.10;99.90
30678;DHT22;17437;47.188;8.896;2023-04-15T11:05:52;11.80;99.90
30678;DHT22;17437;47.188;8.896;2023-04-15T11:08:54;11.70;99.90
30678;DHT22;17437;47.188;8.896;2023-04-15T11:14:39;11.80;99.90
30678;DHT22;17437;47.188;8.896;2023-04-15T11:17:08;11.80;99.90
30678;DHT22;17437;47.188;8.896;2023-04-15T11:19:40;11.70;99.90
30678;DHT22;17437;47.188;8.896;2023-04-15T11:22:12;11.60;99.90
30678;DHT22;17437;47.188;8.896;2023-04-15T11:24:50;11.60;99.90
30678;DHT22;17437;47.188;8.896;2023-04-15T11:27:22;11.60;99.90
30678;DHT22;17437;47.188;8.896;2023-04-15T11:29:54;11.70;99.90
30678;DHT22;17437;47.188;8.896;2023-04-15T11:32:26;12.00;99.90
30678;DHT22;17437;47.188;8.896;2023-04-15T11:34:57;12.40;99.90
30678;DHT22;17437;47.188;8.896;2023-04-15T11:37:29;12.70;99.90
30678;DHT22;17437;47.188;8.896;2023-04-15T11:40:21;13.00;99.90
30678;DHT22;17437;47.188;8.896;2023-04-15T11:43:05;13.00;99.90
30678;DHT22;17437;47.188;8.896;2023-04-15T11:45:37;13.10;99.90
30678;DHT22;17437;47.188;8.896;2023-04-15T11:48:11;13.10;99.90
30678;DHT22;17437;47.188;8.896;2023-04-15T11:50:43;13.00;99.90
30678;DHT22;17437;47.188;8.896;2023-04-15T11:53:15;13.10;99.90
30678;DHT22;17437;47.188;8.896;2023-04-15T11:55:47;13.20;99.90
30678;DHT22;17437;47.188;8.896;2023-04-15T11:58:22;13.30;99.90
30678;DHT22;17437;47.188;8.896;2023-04-15T12:00:56;13.40;99.90
30678;DHT22;17437;47.188;8.896;2023-04-15T12:03:29;13.40;99.90
30678;DHT22;17437;47.188;8.896;2023-04-15T12:09:11;13.50;99.90
30678;DHT22;17437;47.188;8.896;2023-04-15T12:11:44;13.40;99.90
30678;DHT22;17437;47.188;8.896;2023-04-15T12:14:20;13.50;99.90
30678;DHT22;17437;47.188;8.896;2023-04-15T12:16:56;13.60;99.90
30678;DHT22;17437;47.188;8.896;2023-04-15T12:19:29;13.60;99.90
30678;DHT22;17437;47.188;8.896;2023-04-15T12:22:02;13.60;99.90
30678;DHT22;17437;47.188;8.896;2023-04-15T12:24:35;13.30;99.90
30678;DHT22;17437;47.188;8.896;2023-04-15T12:27:08;13.20;99.90
30678;DHT22;17437;47.188;8.896;2023-04-15T12:29:41;13.10;99.90
30678;DHT22;17437;47.188;8.896;2023-04-15T12:32:14;13.00;99.90
30678;DHT22;17437;47.188;8.896;2023-04-15T12:34:48;12.90;99.90
30678;DHT22;17437;47.188;8.896;2023-04-15T12:37:20;12.70;99.90
30678;DHT22;17437;47.188;8.896;2023-04-15T12:39:52;12.30;99.90
30678;DHT22;17437;47.188;8.896;2023-04-15T12:42:24;12.00;99.90
30678;DHT22;17437;47.188;8.896;2023-04-15T12:44:55;11.80;99.90
30678;DHT22;17437;47.188;8.896;2023-04-15T12:47:27;11.60;99.90
30678;DHT22;17437;47.188;8.896;2023-04-15T12:49:58;11.60;99.90
30678;DHT22;17437;47.188;8.896;2023-04-15T12:52:30;11.60;99.90
30678;DHT22;17437;47.188;8.896;2023-04-15T12:55:01;11.50;99.90
30678;DHT22;17437;47.188;8.896;2023-04-15T12:57:33;11.50;99.90
30678;DHT22;17437;47.188;8.896;2023-04-15T13:00:07;11.50;99.90
30678;DHT22;17437;47.188;8.896;2023-04-15T13:02:39;11.60;99.90
30678;DHT22;17437;47.188;8.896;2023-04-15T13:05:11;11.60;99.90
30678;DHT22;17437;47.188;8.896;2023-04-15T13:07:43;11.70;99.90
30678;DHT22;17437;47.188;8.896;2023-04-15T13:10:15;11.70;99.90
30678;DHT22;17437;47.188;8.896;2023-04-15T13:12:48;11.70;99.90
30678;DHT22;17437;47.188;8.896;2023-04-15T13:15:22;11.70;99.90
30678;DHT22;17437;47.188;8.896;2023-04-15T13:17:55;11.60;99.90
30678;DHT22;17437;47.188;8.896;2023-04-15T13:20:26;11.40;99.90
30678;DHT22;17437;47.188;8.896;2023-04-15T13:22:58;11.30;99.90
30678;DHT22;17437;47.188;8.896;2023-04-15T13:25:30;11.20;99.90
30678;DHT22;17437;47.188;8.896;2023-04-15T13:28:02;11.10;99.90
30678;DHT22;17437;47.188;8.896;2023-04-15T13:30:33;11.00;99.90
30678;DHT22;17437;47.188;8.896;2023-04-15T13:33:05;11.00;99.90
30678;DHT22;17437;47.188;8.896;2023-04-15T13:35:37;11.00;99.90
30678;DHT22;17437;47.188;8.896;2023-04-15T13:38:09;10.90;99.90
30678;DHT22;17437;47.188;8.896;2023-04-15T13:40:41;10.90;99.90
30678;DHT22;17437;47.188;8.896;2023-04-15T13:43:14;10.90;99.90
30678;DHT22;17437;47.188;8.896;2023-04-15T13:45:47;10.90;99.90
30678;DHT22;17437;47.188;8.896;2023-04-15T13:48:18;10.90;99.90
30678;DHT22;17437;47.188;8.896;2023-04-15T13:50:50;10.80;99.90
30678;DHT22;17437;47.188;8.896;2023-04-15T13:53:21;10.80;99.90
30678;DHT22;17437;47.188;8.896;2023-04-15T13:55:54;10.70;99.90
30678;DHT22;17437;47.188;8.896;2023-04-15T13:58:26;10.70;99.90
30678;DHT22;17437;47.188;8.896;2023-04-15T14:00:57;10.90;99.90
30678;DHT22;17437;47.188;8.896;2023-04-15T14:03:31;11.00;99.90
30678;DHT22;17437;47.188;8.896;2023-04-15T14:06:03;11.20;99.90
30678;DHT22;17437;47.188;8.896;2023-04-15T14:08:35;11.30;99.90
30678;DHT22;17437;47.188;8.896;2023-04-15T14:11:07;11.20;99.90
30678;DHT22;17437;47.188;8.896;2023-04-15T14:13:38;11.30;99.90
30678;DHT22;17437;47.188;8.896;2023-04-15T14:16:10;11.40;99.90
30678;DHT22;17437;47.188;8.896;2023-04-15T14:18:43;11.50;99.90
30678;DHT22;17437;47.188;8.896;2023-04-15T14:21:15;11.40;99.90
30678;DHT22;17437;47.188;8.896;2023-04-15T14:23:46;11.50;99.90
30678;DHT22;17437;47.188;8.896;2023-04-15T14:26:18;11.40;99.90
30678;DHT22;17437;47.188;8.896;2023-04-15T14:28:50;11.30;99.90
30678;DHT22;17437;47.188;8.896;2023-04-15T14:31:22;11.20;99.90
30678;DHT22;17437;47.188;8.896;2023-04-15T14:33:53;11.10;99.90
30678;DHT22;17437;47.188;8.896;2023-04-15T14:36:26;11.00;99.90
30678;DHT22;17437;47.188;8.896;2023-04-15T14:38:57;10.80;99.90
30678;DHT22;17437;47.188;8.896;2023-04-15T14:41:29;10.80;99.90
30678;DHT22;17437;47.188;8.896;2023-04-15T14:44:01;10.70;99.90
30678;DHT22;17437;47.188;8.896;2023-04-15T14:46:33;10.80;99.90
30678;DHT22;17437;47.188;8.896;2023-04-15T14:49:04;10.70;99.90
30678;DHT22;17437;47.188;8.896;2023-04-15T14:51:36;10.60;99.90
30678;DHT22;17437;47.188;8.896;2023-04-15T14:54:09;10.60;99.90
30678;DHT22;17437;47.188;8.896;2023-04-15T14:56:40;10.60;99.90
30678;DHT22;17437;47.188;8.896;2023-04-15T14:59:12;10.70;99.90
30678;DHT22;17437;47.188;8.896;2023-04-15T15:01:43;10.70;99.90
30678;DHT22;17437;47.188;8.896;2023-04-15T15:04:15;10.70;99.90
30678;DHT22;17437;47.188;8.896;2023-04-15T15:06:47;10.70;99.90
30678;DHT22;17437;47.188;8.896;2023-04-15T15:09:18;10.60;99.90
30678;DHT22;17437;47.188;8.896;2023-04-15T15:11:52;10.50;99.90
30678;DHT22;17437;47.188;8.896;2023-04-15T15:14:23;10.30;99.90
30678;DHT22;17437;47.188;8.896;2023-04-15T15:16:55;10.10;99.90
30678;DHT22;17437;47.188;8.896;2023-04-15T15:19:27;9.90;99.90
30678;DHT22;17437;47.188;8.896;2023-04-15T15:21:58;9.80;99.90
30678;DHT22;17437;47.188;8.896;2023-04-15T15:24:30;9.80;99.90
30678;DHT22;17437;47.188;8.896;2023-04-15T15:27:02;9.70;99.90
30678;DHT22;17437;47.188;8.896;2023-04-15T15:29:33;9.70;99.90
30678;DHT22;17437;47.188;8.896;2023-04-15T15:32:05;9.70;99.90
30678;DHT22;17437;47.188;8.896;2023-04-15T15:34:37;9.60;99.90
30678;DHT22;17437;47.188;8.896;2023-04-15T15:37:09;9.60;99.90
30678;DHT22;17437;47.188;8.896;2023-04-15T15:39:40;9.60;99.90
30678;DHT22;17437;47.188;8.896;2023-04-15T15:42:12;9.70;99.90
30678;DHT22;17437;47.188;8.896;2023-04-15T15:44:43;9.70;99.90
30678;DHT22;17437;47.188;8.896;2023-04-15T15:47:15;9.90;99.90
30678;DHT22;17437;47.188;8.896;2023-04-15T15:49:49;9.90;99.90
30678;DHT22;17437;47.188;8.896;2023-04-15T15:52:21;10.10;99.90
30678;DHT22;17437;47.188;8.896;2023-04-15T15:54:53;10.10;99.90
30678;DHT22;17437;47.188;8.896;2023-04-15T15:57:24;10.10;99.90
30678;DHT22;17437;47.188;8.896;2023-04-15T15:59:56;10.00;99.90
30678;DHT22;17437;47.188;8.896;2023-04-15T16:02:29;10.00;99.90
30678;DHT22;17437;47.188;8.896;2023-04-15T16:05:04;9.90;99.90
30678;DHT22;17437;47.188;8.896;2023-04-15T16:07:35;9.80;99.90
30678;DHT22;17437;47.188;8.896;2023-04-15T16:10:09;9.80;99.90
30678;DHT22;17437;47.188;8.896;2023-04-15T16:12:41;9.90;99.90
30678;DHT22;17437;47.188;8.896;2023-04-15T16:15:13;9.90;99.90
30678;DHT22;17437;47.188;8.896;2023-04-15T16:17:45;9.80;99.90
30678;DHT22;17437;47.188;8.896;2023-04-15T16:20:17;9.90;99.90